sensor_id;sensor_type;location;lat;lon;timestamp;P1;durP1;ratioP1;P2;durP2;ratioP2
53925;SDS011;39836;52.754;6.866;2024-02-21T00:00:15;44.72;;;25.60;;
53925;SDS011;39836;52.754;6.866;2024-02-21T00:02:42;47.10;;;24.00;;
53925;SDS011;39836;52.754;6.866;2024-02-21T00:05:07;49.83;;;25.70;;
53925;SDS011;39836;52.754;6.866;2024-02-21T00:07:33;45.33;;;24.05;;
53925;SDS011;39836;52.754;6.866;2024-02-21T00:09:59;40.65;;;23.63;;
53925;SDS011;39836;52.754;6.866;2024-02-21T00:12:25;39.67;;;23.60;;
53925;SDS011;39836;52.754;6.866;2024-02-21T00:14:51;43.95;;;24.70;;
53925;SDS011;39836;52.754;6.866;2024-02-21T00:17:16;48.50;;;23.40;;
53925;SDS011;39836;52.754;6.866;2024-02-21T00:19:42;46.72;;;26.45;;
53925;SDS011;39836;52.754;6.866;2024-02-21T00:22:08;42.15;;;24.20;;
53925;SDS011;39836;52.754;6.866;2024-02-21T00:24:33;45.45;;;23.05;;
53925;SDS011;39836;52.754;6.866;2024-02-21T00:26:59;42.50;;;23.08;;
53925;SDS011;39836;52.754;6.866;2024-02-21T00:29:25;34.67;;;22.35;;
53925;SDS011;39836;52.754;6.866;2024-02-21T00:31:50;34.67;;;22.70;;
53925;SDS011;39836;52.754;6.866;2024-02-21T00:34:16;41.67;;;21.15;;
53925;SDS011;39836;52.754;6.866;2024-02-21T00:36:42;38.90;;;20.63;;
53925;SDS011;39836;52.754;6.866;2024-02-21T00:39:07;37.70;;;21.45;;
53925;SDS011;39836;52.754;6.866;2024-02-21T00:41:33;35.60;;;20.88;;
53925;SDS011;39836;52.754;6.866;2024-02-21T00:43:59;40.80;;;21.13;;
53925;SDS011;39836;52.754;6.866;2024-02-21T00:46:24;35.60;;;21.02;;
53925;SDS011;39836;52.754;6.866;2024-02-21T00:48:50;34.65;;;20.60;;
53925;SDS011;39836;52.754;6.866;2024-02-21T00:51:16;33.35;;;20.80;;
53925;SDS011;39836;52.754;6.866;2024-02-21T00:53:42;39.00;;;21.92;;
53925;SDS011;39836;52.754;6.866;2024-02-21T00:56:08;39.22;;;21.63;;
53925;SDS011;39836;52.754;6.866;2024-02-21T00:58:34;35.90;;;20.73;;
53925;SDS011;39836;52.754;6.866;2024-02-21T01:01:02;45.13;;;21.20;;
53925;SDS011;39836;52.754;6.866;2024-02-21T01:03:28;41.53;;;19.70;;
53925;SDS011;39836;52.754;6.866;2024-02-21T01:05:54;41.08;;;20.63;;
53925;SDS011;39836;52.754;6.866;2024-02-21T01:08:19;41.95;;;22.30;;
53925;SDS011;39836;52.754;6.866;2024-02-21T01:10:45;33.33;;;19.75;;
53925;SDS011;39836;52.754;6.866;2024-02-21T01:13:11;43.20;;;20.67;;
53925;SDS011;39836;52.754;6.866;2024-02-21T01:15:36;34.05;;;20.25;;
53925;SDS011;39836;52.754;6.866;2024-02-21T01:18:02;31.63;;;19.50;;
53925;SDS011;39836;52.754;6.866;2024-02-21T01:20:28;38.47;;;20.25;;
53925;SDS011;39836;52.754;6.866;2024-02-21T01:22:54;32.85;;;19.35;;
53925;SDS011;39836;52.754;6.866;2024-02-21T01:25:19;31.42;;;20.23;;
53925;SDS011;39836;52.754;6.866;2024-02-21T01:27:45;36.17;;;20.45;;
53925;SDS011;39836;52.754;6.866;2024-02-21T01:30:11;39.95;;;19.42;;
53925;SDS011;39836;52.754;6.866;2024-02-21T01:32:37;35.65;;;17.95;;
53925;SDS011;39836;52.754;6.866;2024-02-21T01:35:02;37.55;;;18.63;;
53925;SDS011;39836;52.754;6.866;2024-02-21T01:37:28;37.22;;;19.75;;
53925;SDS011;39836;52.754;6.866;2024-02-21T01:39:54;32.88;;;20.10;;
53925;SDS011;39836;52.754;6.866;2024-02-21T01:42:19;35.08;;;20.05;;
53925;SDS011;39836;52.754;6.866;2024-02-21T01:44:45;33.83;;;19.13;;
53925;SDS011;39836;52.754;6.866;2024-02-21T01:47:11;35.83;;;19.70;;
53925;SDS011;39836;52.754;6.866;2024-02-21T01:49:40;39.30;;;18.95;;
53925;SDS011;39836;52.754;6.866;2024-02-21T01:52:06;34.28;;;19.30;;
53925;SDS011;39836;52.754;6.866;2024-02-21T01:54:33;30.27;;;17.95;;
53925;SDS011;39836;52.754;6.866;2024-02-21T01:56:59;35.42;;;18.83;;
53925;SDS011;39836;52.754;6.866;2024-02-21T01:59:26;34.83;;;19.35;;
53925;SDS011;39836;52.754;6.866;2024-02-21T02:01:51;29.17;;;17.35;;
53925;SDS011;39836;52.754;6.866;2024-02-21T02:04:18;34.22;;;18.48;;
53925;SDS011;39836;52.754;6.866;2024-02-21T02:06:45;39.33;;;17.73;;
53925;SDS011;39836;52.754;6.866;2024-02-21T02:09:11;32.80;;;17.13;;
53925;SDS011;39836;52.754;6.866;2024-02-21T02:11:37;35.67;;;18.08;;
53925;SDS011;39836;52.754;6.866;2024-02-21T02:14:02;30.80;;;17.67;;
53925;SDS011;39836;52.754;6.866;2024-02-21T02:16:28;26.10;;;17.58;;
53925;SDS011;39836;52.754;6.866;2024-02-21T02:18:54;34.85;;;19.02;;
53925;SDS011;39836;52.754;6.866;2024-02-21T02:21:23;39.08;;;17.85;;
53925;SDS011;39836;52.754;6.866;2024-02-21T02:23:57;40.45;;;18.90;;
53925;SDS011;39836;52.754;6.866;2024-02-21T02:26:24;25.40;;;17.40;;
53925;SDS011;39836;52.754;6.866;2024-02-21T02:28:49;33.92;;;18.23;;
53925;SDS011;39836;52.754;6.866;2024-02-21T02:31:15;32.55;;;16.90;;
53925;SDS011;39836;52.754;6.866;2024-02-21T02:33:42;34.75;;;17.25;;
53925;SDS011;39836;52.754;6.866;2024-02-21T02:36:09;34.72;;;17.92;;
53925;SDS011;39836;52.754;6.866;2024-02-21T02:38:35;40.53;;;17.10;;
53925;SDS011;39836;52.754;6.866;2024-02-21T02:41:00;38.28;;;17.70;;
53925;SDS011;39836;52.754;6.866;2024-02-21T02:43:26;36.97;;;17.80;;
53925;SDS011;39836;52.754;6.866;2024-02-21T02:45:52;36.90;;;19.23;;
53925;SDS011;39836;52.754;6.866;2024-02-21T02:48:17;34.78;;;18.95;;
53925;SDS011;39836;52.754;6.866;2024-02-21T02:50:44;40.60;;;20.52;;
53925;SDS011;39836;52.754;6.866;2024-02-21T02:53:11;40.13;;;20.65;;
53925;SDS011;39836;52.754;6.866;2024-02-21T02:55:36;41.25;;;20.05;;
53925;SDS011;39836;52.754;6.866;2024-02-21T02:58:02;44.45;;;20.75;;
53925;SDS011;39836;52.754;6.866;2024-02-21T03:00:28;37.95;;;20.33;;
53925;SDS011;39836;52.754;6.866;2024-02-21T03:02:53;44.25;;;21.30;;
53925;SDS011;39836;52.754;6.866;2024-02-21T03:05:20;40.83;;;21.13;;
53925;SDS011;39836;52.754;6.866;2024-02-21T03:07:46;43.22;;;22.10;;
53925;SDS011;39836;52.754;6.866;2024-02-21T03:10:13;47.88;;;22.45;;
53925;SDS011;39836;52.754;6.866;2024-02-21T03:12:39;40.17;;;20.63;;
53925;SDS011;39836;52.754;6.866;2024-02-21T03:15:05;39.38;;;20.05;;
53925;SDS011;39836;52.754;6.866;2024-02-21T03:17:32;37.70;;;19.83;;
53925;SDS011;39836;52.754;6.866;2024-02-21T03:19:59;41.53;;;21.50;;
53925;SDS011;39836;52.754;6.866;2024-02-21T03:22:25;40.65;;;20.83;;
53925;SDS011;39836;52.754;6.866;2024-02-21T03:24:51;39.00;;;20.45;;
53925;SDS011;39836;52.754;6.866;2024-02-21T03:27:17;43.92;;;21.45;;
53925;SDS011;39836;52.754;6.866;2024-02-21T03:29:42;46.33;;;21.27;;
53925;SDS011;39836;52.754;6.866;2024-02-21T03:32:08;48.78;;;20.20;;
53925;SDS011;39836;52.754;6.866;2024-02-21T03:34:34;39.28;;;21.45;;
53925;SDS011;39836;52.754;6.866;2024-02-21T03:37:00;41.67;;;21.30;;
53925;SDS011;39836;52.754;6.866;2024-02-21T03:39:26;34.08;;;20.60;;
53925;SDS011;39836;52.754;6.866;2024-02-21T03:41:51;43.38;;;20.88;;
53925;SDS011;39836;52.754;6.866;2024-02-21T03:44:17;45.25;;;22.75;;
53925;SDS011;39836;52.754;6.866;2024-02-21T03:46:43;35.60;;;19.95;;
53925;SDS011;39836;52.754;6.866;2024-02-21T03:49:08;38.10;;;21.23;;
53925;SDS011;39836;52.754;6.866;2024-02-21T03:51:34;47.67;;;21.30;;
53925;SDS011;39836;52.754;6.866;2024-02-21T03:54:00;42.63;;;20.70;;
53925;SDS011;39836;52.754;6.866;2024-02-21T03:56:26;41.50;;;20.77;;
53925;SDS011;39836;52.754;6.866;2024-02-21T03:58:51;40.90;;;20.67;;
53925;SDS011;39836;52.754;6.866;2024-02-21T04:01:17;43.85;;;19.05;;
53925;SDS011;39836;52.754;6.866;2024-02-21T04:03:43;37.80;;;18.73;;
53925;SDS011;39836;52.754;6.866;2024-02-21T04:06:09;43.50;;;19.40;;
53925;SDS011;39836;52.754;6.866;2024-02-21T04:08:35;40.15;;;20.05;;
53925;SDS011;39836;52.754;6.866;2024-02-21T04:11:01;42.35;;;20.33;;
53925;SDS011;39836;52.754;6.866;2024-02-21T04:13:27;47.53;;;20.48;;
53925;SDS011;39836;52.754;6.866;2024-02-21T04:15:52;38.08;;;19.73;;
53925;SDS011;39836;52.754;6.866;2024-02-21T04:18:18;42.63;;;19.50;;
53925;SDS011;39836;52.754;6.866;2024-02-21T04:20:44;55.20;;;22.02;;
53925;SDS011;39836;52.754;6.866;2024-02-21T04:23:10;46.42;;;19.55;;
53925;SDS011;39836;52.754;6.866;2024-02-21T04:25:36;39.95;;;19.35;;
53925;SDS011;39836;52.754;6.866;2024-02-21T04:28:01;44.17;;;20.13;;
53925;SDS011;39836;52.754;6.866;2024-02-21T04:30:28;45.40;;;19.42;;
53925;SDS011;39836;52.754;6.866;2024-02-21T04:32:53;43.35;;;18.13;;
53925;SDS011;39836;52.754;6.866;2024-02-21T04:35:19;44.20;;;16.88;;
53925;SDS011;39836;52.754;6.866;2024-02-21T04:37:45;36.00;;;17.85;;
53925;SDS011;39836;52.754;6.866;2024-02-21T04:40:11;38.08;;;17.48;;
53925;SDS011;39836;52.754;6.866;2024-02-21T04:42:38;44.38;;;18.33;;
53925;SDS011;39836;52.754;6.866;2024-02-21T04:45:04;40.33;;;16.88;;
53925;SDS011;39836;52.754;6.866;2024-02-21T04:47:30;43.20;;;18.20;;
53925;SDS011;39836;52.754;6.866;2024-02-21T04:49:56;44.83;;;20.17;;
53925;SDS011;39836;52.754;6.866;2024-02-21T04:52:21;47.00;;;20.63;;
53925;SDS011;39836;52.754;6.866;2024-02-21T04:54:47;43.08;;;20.55;;
53925;SDS011;39836;52.754;6.866;2024-02-21T04:57:12;41.50;;;20.40;;
53925;SDS011;39836;52.754;6.866;2024-02-21T04:59:43;45.72;;;21.40;;
53925;SDS011;39836;52.754;6.866;2024-02-21T05:02:09;36.65;;;18.67;;
53925;SDS011;39836;52.754;6.866;2024-02-21T05:04:36;52.78;;;20.33;;
53925;SDS011;39836;52.754;6.866;2024-02-21T05:07:03;44.40;;;19.50;;
53925;SDS011;39836;52.754;6.866;2024-02-21T05:09:29;45.85;;;20.00;;
53925;SDS011;39836;52.754;6.866;2024-02-21T05:11:55;44.85;;;19.80;;
53925;SDS011;39836;52.754;6.866;2024-02-21T05:14:20;40.60;;;18.42;;
53925;SDS011;39836;52.754;6.866;2024-02-21T05:16:46;42.03;;;19.00;;
53925;SDS011;39836;52.754;6.866;2024-02-21T05:19:12;39.88;;;18.77;;
53925;SDS011;39836;52.754;6.866;2024-02-21T05:21:37;33.55;;;17.15;;
53925;SDS011;39836;52.754;6.866;2024-02-21T05:24:03;44.00;;;19.15;;
53925;SDS011;39836;52.754;6.866;2024-02-21T05:26:29;41.13;;;18.55;;
53925;SDS011;39836;52.754;6.866;2024-02-21T05:28:55;39.60;;;17.92;;
53925;SDS011;39836;52.754;6.866;2024-02-21T05:31:21;44.58;;;18.42;;
53925;SDS011;39836;52.754;6.866;2024-02-21T05:33:46;35.17;;;17.35;;
53925;SDS011;39836;52.754;6.866;2024-02-21T05:36:13;44.97;;;18.20;;
53925;SDS011;39836;52.754;6.866;2024-02-21T05:38:38;44.08;;;19.58;;
53925;SDS011;39836;52.754;6.866;2024-02-21T05:41:04;42.75;;;18.40;;
53925;SDS011;39836;52.754;6.866;2024-02-21T05:43:30;43.70;;;19.92;;
53925;SDS011;39836;52.754;6.866;2024-02-21T05:45:56;42.45;;;19.70;;
53925;SDS011;39836;52.754;6.866;2024-02-21T05:48:22;35.45;;;19.65;;
53925;SDS011;39836;52.754;6.866;2024-02-21T05:50:48;38.38;;;20.33;;
53925;SDS011;39836;52.754;6.866;2024-02-21T05:53:13;44.78;;;21.85;;
53925;SDS011;39836;52.754;6.866;2024-02-21T05:55:40;40.42;;;20.88;;
53925;SDS011;39836;52.754;6.866;2024-02-21T05:58:06;39.47;;;21.30;;
53925;SDS011;39836;52.754;6.866;2024-02-21T06:00:32;42.85;;;21.35;;
53925;SDS011;39836;52.754;6.866;2024-02-21T06:02:58;42.80;;;22.63;;
53925;SDS011;39836;52.754;6.866;2024-02-21T06:05:24;44.80;;;22.73;;
53925;SDS011;39836;52.754;6.866;2024-02-21T06:07:50;42.60;;;23.55;;
53925;SDS011;39836;52.754;6.866;2024-02-21T06:10:16;46.92;;;23.42;;
53925;SDS011;39836;52.754;6.866;2024-02-21T06:12:41;40.53;;;23.02;;
53925;SDS011;39836;52.754;6.866;2024-02-21T06:15:07;48.25;;;24.25;;
53925;SDS011;39836;52.754;6.866;2024-02-21T06:17:33;41.65;;;23.67;;
53925;SDS011;39836;52.754;6.866;2024-02-21T06:19:59;49.03;;;23.08;;
53925;SDS011;39836;52.754;6.866;2024-02-21T06:22:25;40.28;;;22.77;;
53925;SDS011;39836;52.754;6.866;2024-02-21T06:24:51;47.92;;;22.73;;
53925;SDS011;39836;52.754;6.866;2024-02-21T06:27:18;40.75;;;23.98;;
53925;SDS011;39836;52.754;6.866;2024-02-21T06:29:43;52.38;;;25.05;;
53925;SDS011;39836;52.754;6.866;2024-02-21T06:32:09;45.42;;;23.80;;
53925;SDS011;39836;52.754;6.866;2024-02-21T06:34:35;40.92;;;22.90;;
53925;SDS011;39836;52.754;6.866;2024-02-21T06:37:00;44.58;;;24.08;;
53925;SDS011;39836;52.754;6.866;2024-02-21T06:39:26;45.83;;;23.70;;
53925;SDS011;39836;52.754;6.866;2024-02-21T06:41:53;40.92;;;21.88;;
53925;SDS011;39836;52.754;6.866;2024-02-21T06:44:21;47.63;;;22.80;;
53925;SDS011;39836;52.754;6.866;2024-02-21T06:46:47;48.25;;;22.10;;
53925;SDS011;39836;52.754;6.866;2024-02-21T06:49:12;43.25;;;22.48;;
53925;SDS011;39836;52.754;6.866;2024-02-21T06:51:41;44.20;;;22.15;;
53925;SDS011;39836;52.754;6.866;2024-02-21T06:54:08;39.60;;;21.52;;
53925;SDS011;39836;52.754;6.866;2024-02-21T06:56:34;41.08;;;21.63;;
53925;SDS011;39836;52.754;6.866;2024-02-21T06:59:00;45.72;;;22.75;;
53925;SDS011;39836;52.754;6.866;2024-02-21T07:01:28;41.15;;;21.35;;
53925;SDS011;39836;52.754;6.866;2024-02-21T07:03:54;42.63;;;22.35;;
53925;SDS011;39836;52.754;6.866;2024-02-21T07:06:19;46.50;;;23.02;;
53925;SDS011;39836;52.754;6.866;2024-02-21T07:08:45;45.60;;;23.90;;
53925;SDS011;39836;52.754;6.866;2024-02-21T07:11:11;42.72;;;21.33;;
53925;SDS011;39836;52.754;6.866;2024-02-21T07:13:36;37.38;;;21.23;;
53925;SDS011;39836;52.754;6.866;2024-02-21T07:16:02;44.30;;;21.13;;
53925;SDS011;39836;52.754;6.866;2024-02-21T07:18:28;42.53;;;21.85;;
53925;SDS011;39836;52.754;6.866;2024-02-21T07:20:54;45.33;;;22.38;;
53925;SDS011;39836;52.754;6.866;2024-02-21T07:23:20;44.22;;;22.70;;
53925;SDS011;39836;52.754;6.866;2024-02-21T07:25:46;41.08;;;22.23;;
53925;SDS011;39836;52.754;6.866;2024-02-21T07:28:11;39.90;;;25.02;;
53925;SDS011;39836;52.754;6.866;2024-02-21T07:30:38;47.85;;;26.20;;
53925;SDS011;39836;52.754;6.866;2024-02-21T07:33:04;43.53;;;26.13;;
53925;SDS011;39836;52.754;6.866;2024-02-21T07:35:32;47.47;;;26.95;;
53925;SDS011;39836;52.754;6.866;2024-02-21T07:37:58;46.22;;;27.80;;
53925;SDS011;39836;52.754;6.866;2024-02-21T07:40:23;47.33;;;28.17;;
53925;SDS011;39836;52.754;6.866;2024-02-21T07:42:49;45.67;;;27.42;;
53925;SDS011;39836;52.754;6.866;2024-02-21T07:45:15;42.17;;;26.75;;
53925;SDS011;39836;52.754;6.866;2024-02-21T07:47:40;46.00;;;28.92;;
53925;SDS011;39836;52.754;6.866;2024-02-21T07:50:06;46.22;;;27.88;;
53925;SDS011;39836;52.754;6.866;2024-02-21T07:52:32;49.00;;;28.73;;
53925;SDS011;39836;52.754;6.866;2024-02-21T07:54:58;46.03;;;27.45;;
53925;SDS011;39836;52.754;6.866;2024-02-21T07:57:24;47.83;;;27.27;;
53925;SDS011;39836;52.754;6.866;2024-02-21T07:59:49;43.80;;;27.83;;
53925;SDS011;39836;52.754;6.866;2024-02-21T08:02:15;47.72;;;28.00;;
53925;SDS011;39836;52.754;6.866;2024-02-21T08:04:41;42.97;;;26.90;;
53925;SDS011;39836;52.754;6.866;2024-02-21T08:07:07;45.97;;;27.90;;
53925;SDS011;39836;52.754;6.866;2024-02-21T08:09:33;43.70;;;28.10;;
53925;SDS011;39836;52.754;6.866;2024-02-21T08:11:58;39.05;;;27.58;;
53925;SDS011;39836;52.754;6.866;2024-02-21T08:14:24;53.50;;;29.60;;
53925;SDS011;39836;52.754;6.866;2024-02-21T08:16:50;42.53;;;26.92;;
53925;SDS011;39836;52.754;6.866;2024-02-21T08:19:18;42.30;;;27.02;;
53925;SDS011;39836;52.754;6.866;2024-02-21T08:21:44;46.63;;;26.27;;
53925;SDS011;39836;52.754;6.866;2024-02-21T08:24:16;42.78;;;28.20;;
53925;SDS011;39836;52.754;6.866;2024-02-21T08:26:42;37.90;;;26.30;;
53925;SDS011;39836;52.754;6.866;2024-02-21T08:29:09;42.30;;;27.13;;
53925;SDS011;39836;52.754;6.866;2024-02-21T08:31:35;39.50;;;27.23;;
53925;SDS011;39836;52.754;6.866;2024-02-21T08:34:01;44.10;;;27.77;;
53925;SDS011;39836;52.754;6.866;2024-02-21T08:36:28;37.08;;;26.52;;
53925;SDS011;39836;52.754;6.866;2024-02-21T08:38:55;40.55;;;27.02;;
53925;SDS011;39836;52.754;6.866;2024-02-21T08:41:22;43.33;;;26.17;;
53925;SDS011;39836;52.754;6.866;2024-02-21T08:43:50;37.30;;;26.45;;
53925;SDS011;39836;52.754;6.866;2024-02-21T08:46:28;40.25;;;25.45;;
53925;SDS011;39836;52.754;6.866;2024-02-21T08:48:54;38.42;;;27.08;;
53925;SDS011;39836;52.754;6.866;2024-02-21T08:51:19;38.65;;;26.48;;
53925;SDS011;39836;52.754;6.866;2024-02-21T08:53:46;41.33;;;25.95;;
53925;SDS011;39836;52.754;6.866;2024-02-21T08:56:12;41.28;;;25.77;;
53925;SDS011;39836;52.754;6.866;2024-02-21T08:58:41;41.75;;;26.98;;
53925;SDS011;39836;52.754;6.866;2024-02-21T09:01:07;43.85;;;26.35;;
53925;SDS011;39836;52.754;6.866;2024-02-21T09:03:36;40.20;;;26.02;;
53925;SDS011;39836;52.754;6.866;2024-02-21T09:06:03;42.83;;;25.88;;
53925;SDS011;39836;52.754;6.866;2024-02-21T09:08:32;40.75;;;26.05;;
53925;SDS011;39836;52.754;6.866;2024-02-21T09:11:02;43.05;;;27.23;;
53925;SDS011;39836;52.754;6.866;2024-02-21T09:13:28;42.40;;;25.58;;
53925;SDS011;39836;52.754;6.866;2024-02-21T09:15:55;45.20;;;26.95;;
53925;SDS011;39836;52.754;6.866;2024-02-21T09:18:21;39.13;;;25.58;;
53925;SDS011;39836;52.754;6.866;2024-02-21T09:20:46;38.25;;;23.20;;
53925;SDS011;39836;52.754;6.866;2024-02-21T09:23:12;40.35;;;22.58;;
53925;SDS011;39836;52.754;6.866;2024-02-21T09:25:38;35.50;;;21.23;;
53925;SDS011;39836;52.754;6.866;2024-02-21T09:28:05;36.10;;;21.35;;
53925;SDS011;39836;52.754;6.866;2024-02-21T09:30:31;33.22;;;20.70;;
53925;SDS011;39836;52.754;6.866;2024-02-21T09:32:57;36.35;;;19.70;;
53925;SDS011;39836;52.754;6.866;2024-02-21T09:35:24;34.22;;;21.92;;
53925;SDS011;39836;52.754;6.866;2024-02-21T09:37:52;34.50;;;20.45;;
53925;SDS011;39836;52.754;6.866;2024-02-21T09:40:18;31.08;;;18.95;;
53925;SDS011;39836;52.754;6.866;2024-02-21T09:42:44;31.40;;;19.05;;
53925;SDS011;39836;52.754;6.866;2024-02-21T09:45:21;32.15;;;19.13;;
53925;SDS011;39836;52.754;6.866;2024-02-21T09:50:35;38.38;;;19.40;;
53925;SDS011;39836;52.754;6.866;2024-02-21T09:53:03;36.58;;;17.77;;
53925;SDS011;39836;52.754;6.866;2024-02-21T09:55:31;31.75;;;19.20;;
53925;SDS011;39836;52.754;6.866;2024-02-21T09:57:59;30.48;;;17.60;;
53925;SDS011;39836;52.754;6.866;2024-02-21T10:00:26;28.48;;;17.13;;
53925;SDS011;39836;52.754;6.866;2024-02-21T10:02:53;32.13;;;17.52;;
53925;SDS011;39836;52.754;6.866;2024-02-21T10:05:19;31.58;;;17.77;;
53925;SDS011;39836;52.754;6.866;2024-02-21T10:07:45;31.48;;;17.50;;
53925;SDS011;39836;52.754;6.866;2024-02-21T10:10:13;31.23;;;17.60;;
53925;SDS011;39836;52.754;6.866;2024-02-21T10:12:49;28.10;;;16.52;;
53925;SDS011;39836;52.754;6.866;2024-02-21T10:15:19;27.17;;;16.42;;
53925;SDS011;39836;52.754;6.866;2024-02-21T10:17:47;32.63;;;16.98;;
53925;SDS011;39836;52.754;6.866;2024-02-21T10:20:13;27.40;;;16.17;;
53925;SDS011;39836;52.754;6.866;2024-02-21T10:22:40;27.73;;;16.95;;
53925;SDS011;39836;52.754;6.866;2024-02-21T10:25:09;31.02;;;15.40;;
53925;SDS011;39836;52.754;6.866;2024-02-21T10:27:36;22.90;;;15.25;;
53925;SDS011;39836;52.754;6.866;2024-02-21T10:30:02;28.13;;;16.00;;
53925;SDS011;39836;52.754;6.866;2024-02-21T10:32:50;29.38;;;16.38;;
53925;SDS011;39836;52.754;6.866;2024-02-21T10:35:26;25.50;;;15.63;;
53925;SDS011;39836;52.754;6.866;2024-02-21T10:37:53;27.77;;;15.63;;
53925;SDS011;39836;52.754;6.866;2024-02-21T10:40:30;27.20;;;15.77;;
53925;SDS011;39836;52.754;6.866;2024-02-21T10:43:00;26.85;;;15.02;;
53925;SDS011;39836;52.754;6.866;2024-02-21T10:45:30;22.42;;;14.77;;
53925;SDS011;39836;52.754;6.866;2024-02-21T10:48:02;21.40;;;14.98;;
53925;SDS011;39836;52.754;6.866;2024-02-21T10:53:09;26.13;;;15.30;;
53925;SDS011;39836;52.754;6.866;2024-02-21T10:56:06;28.08;;;14.93;;
53925;SDS011;39836;52.754;6.866;2024-02-21T10:58:37;21.20;;;14.13;;
53925;SDS011;39836;52.754;6.866;2024-02-21T11:01:04;22.05;;;12.65;;
53925;SDS011;39836;52.754;6.866;2024-02-21T11:03:30;25.85;;;13.55;;
53925;SDS011;39836;52.754;6.866;2024-02-21T11:05:57;21.20;;;13.93;;
53925;SDS011;39836;52.754;6.866;2024-02-21T11:08:24;21.02;;;12.82;;
53925;SDS011;39836;52.754;6.866;2024-02-21T11:10:56;24.20;;;12.25;;
53925;SDS011;39836;52.754;6.866;2024-02-21T11:13:29;22.10;;;12.52;;
53925;SDS011;39836;52.754;6.866;2024-02-21T11:16:07;19.58;;;12.32;;
53925;SDS011;39836;52.754;6.866;2024-02-21T11:18:35;20.55;;;12.13;;
53925;SDS011;39836;52.754;6.866;2024-02-21T11:21:01;19.63;;;12.18;;
53925;SDS011;39836;52.754;6.866;2024-02-21T11:23:29;23.92;;;12.48;;
53925;SDS011;39836;52.754;6.866;2024-02-21T11:26:17;18.65;;;12.25;;
53925;SDS011;39836;52.754;6.866;2024-02-21T11:29:02;20.40;;;11.93;;
53925;SDS011;39836;52.754;6.866;2024-02-21T11:31:42;20.10;;;11.93;;
53925;SDS011;39836;52.754;6.866;2024-02-21T11:34:16;15.90;;;10.20;;
53925;SDS011;39836;52.754;6.866;2024-02-21T11:36:47;19.27;;;10.88;;
53925;SDS011;39836;52.754;6.866;2024-02-21T11:39:20;16.15;;;10.27;;
53925;SDS011;39836;52.754;6.866;2024-02-21T11:42:06;26.88;;;10.77;;
53925;SDS011;39836;52.754;6.866;2024-02-21T11:44:35;21.30;;;10.82;;
53925;SDS011;39836;52.754;6.866;2024-02-21T11:47:05;19.55;;;10.63;;
53925;SDS011;39836;52.754;6.866;2024-02-21T11:49:36;20.25;;;11.40;;
53925;SDS011;39836;52.754;6.866;2024-02-21T11:52:07;18.52;;;10.43;;
53925;SDS011;39836;52.754;6.866;2024-02-21T11:54:33;17.67;;;11.18;;
53925;SDS011;39836;52.754;6.866;2024-02-21T11:57:00;19.33;;;10.65;;
53925;SDS011;39836;52.754;6.866;2024-02-21T11:59:26;17.30;;;10.18;;
53925;SDS011;39836;52.754;6.866;2024-02-21T12:01:54;15.35;;;9.02;;
53925;SDS011;39836;52.754;6.866;2024-02-21T12:04:21;16.38;;;9.05;;
53925;SDS011;39836;52.754;6.866;2024-02-21T12:06:49;13.18;;;8.80;;
53925;SDS011;39836;52.754;6.866;2024-02-21T12:09:15;15.50;;;8.90;;
53925;SDS011;39836;52.754;6.866;2024-02-21T12:11:41;12.27;;;8.25;;
53925;SDS011;39836;52.754;6.866;2024-02-21T12:14:08;14.05;;;8.07;;
53925;SDS011;39836;52.754;6.866;2024-02-21T12:16:34;14.85;;;7.90;;
53925;SDS011;39836;52.754;6.866;2024-02-21T12:19:02;16.63;;;8.68;;
53925;SDS011;39836;52.754;6.866;2024-02-21T12:21:31;12.90;;;7.72;;
53925;SDS011;39836;52.754;6.866;2024-02-21T12:26:48;14.70;;;8.52;;
53925;SDS011;39836;52.754;6.866;2024-02-21T12:29:14;14.27;;;8.63;;
53925;SDS011;39836;52.754;6.866;2024-02-21T12:31:40;14.38;;;8.05;;
53925;SDS011;39836;52.754;6.866;2024-02-21T12:34:06;11.80;;;7.47;;
53925;SDS011;39836;52.754;6.866;2024-02-21T12:36:32;12.02;;;6.82;;
53925;SDS011;39836;52.754;6.866;2024-02-21T12:38:58;11.07;;;7.18;;
53925;SDS011;39836;52.754;6.866;2024-02-21T12:41:25;9.73;;;5.93;;
53925;SDS011;39836;52.754;6.866;2024-02-21T12:43:52;10.88;;;6.15;;
53925;SDS011;39836;52.754;6.866;2024-02-21T12:46:18;10.13;;;6.43;;
53925;SDS011;39836;52.754;6.866;2024-02-21T12:48:44;12.65;;;6.13;;
53925;SDS011;39836;52.754;6.866;2024-02-21T12:51:09;8.38;;;5.68;;
53925;SDS011;39836;52.754;6.866;2024-02-21T12:53:35;9.63;;;5.03;;
53925;SDS011;39836;52.754;6.866;2024-02-21T12:56:01;10.43;;;5.35;;
53925;SDS011;39836;52.754;6.866;2024-02-21T12:58:27;8.30;;;5.13;;
53925;SDS011;39836;52.754;6.866;2024-02-21T13:00:53;11.90;;;5.47;;
53925;SDS011;39836;52.754;6.866;2024-02-21T13:03:19;10.25;;;6.13;;
53925;SDS011;39836;52.754;6.866;2024-02-21T13:05:46;10.98;;;6.20;;
53925;SDS011;39836;52.754;6.866;2024-02-21T13:08:13;8.63;;;5.55;;
53925;SDS011;39836;52.754;6.866;2024-02-21T13:10:39;9.70;;;6.20;;
53925;SDS011;39836;52.754;6.866;2024-02-21T13:13:04;9.07;;;6.00;;
53925;SDS011;39836;52.754;6.866;2024-02-21T13:15:30;8.90;;;6.53;;
53925;SDS011;39836;52.754;6.866;2024-02-21T13:17:56;10.75;;;6.72;;
53925;SDS011;39836;52.754;6.866;2024-02-21T13:20:23;11.20;;;6.85;;
53925;SDS011;39836;52.754;6.866;2024-02-21T13:22:50;14.27;;;7.38;;
53925;SDS011;39836;52.754;6.866;2024-02-21T13:25:16;11.68;;;6.90;;
53925;SDS011;39836;52.754;6.866;2024-02-21T13:27:44;13.45;;;6.50;;
53925;SDS011;39836;52.754;6.866;2024-02-21T13:30:10;10.10;;;6.75;;
53925;SDS011;39836;52.754;6.866;2024-02-21T13:32:36;12.82;;;7.13;;
53925;SDS011;39836;52.754;6.866;2024-02-21T13:35:02;13.00;;;6.85;;
53925;SDS011;39836;52.754;6.866;2024-02-21T13:37:28;11.57;;;6.38;;
53925;SDS011;39836;52.754;6.866;2024-02-21T13:39:54;12.45;;;6.68;;
53925;SDS011;39836;52.754;6.866;2024-02-21T13:42:21;15.00;;;6.80;;
53925;SDS011;39836;52.754;6.866;2024-02-21T13:44:46;11.60;;;6.45;;
53925;SDS011;39836;52.754;6.866;2024-02-21T13:47:13;10.20;;;5.70;;
53925;SDS011;39836;52.754;6.866;2024-02-21T13:49:40;12.98;;;6.93;;
53925;SDS011;39836;52.754;6.866;2024-02-21T13:52:06;12.75;;;7.55;;
53925;SDS011;39836;52.754;6.866;2024-02-21T13:54:32;17.15;;;7.35;;
53925;SDS011;39836;52.754;6.866;2024-02-21T13:56:58;10.48;;;7.00;;
53925;SDS011;39836;52.754;6.866;2024-02-21T13:59:23;14.52;;;6.72;;
53925;SDS011;39836;52.754;6.866;2024-02-21T14:01:51;12.90;;;7.07;;
53925;SDS011;39836;52.754;6.866;2024-02-21T14:04:16;13.32;;;7.45;;
53925;SDS011;39836;52.754;6.866;2024-02-21T14:06:42;9.85;;;6.80;;
53925;SDS011;39836;52.754;6.866;2024-02-21T14:09:12;10.15;;;6.93;;
53925;SDS011;39836;52.754;6.866;2024-02-21T14:11:37;16.13;;;6.93;;
53925;SDS011;39836;52.754;6.866;2024-02-21T14:14:05;10.82;;;7.53;;
53925;SDS011;39836;52.754;6.866;2024-02-21T14:16:30;16.25;;;7.28;;
53925;SDS011;39836;52.754;6.866;2024-02-21T14:18:57;15.07;;;7.18;;
53925;SDS011;39836;52.754;6.866;2024-02-21T14:21:23;13.23;;;7.40;;
53925;SDS011;39836;52.754;6.866;2024-02-21T14:23:48;14.85;;;7.57;;
53925;SDS011;39836;52.754;6.866;2024-02-21T14:26:14;13.75;;;6.10;;
53925;SDS011;39836;52.754;6.866;2024-02-21T14:28:40;16.08;;;7.05;;